DEDDX EDDV-ZZZZ

Flight info

Callsign DEDDX
Flight time N/A
Altitude
Route
Aircraft C172

Departure

Time 2026-05-04 11:28
Airport Hannover Airport (EDDV)

Arrival

Time N/A
Airport ZZZZ
Time Latitude Longitude Altitude Speed Heading
2026-05-04 11:19 52.45720 9.68425 173 ft 0 kts 182°
2026-05-04 11:22 52.45640 9.68431 173 ft 21 kts 82°
2026-05-04 11:22 52.45632 9.68716 173 ft 29 kts 95°
2026-05-04 11:23 52.45624 9.69062 173 ft 27 kts 92°
2026-05-04 11:23 52.45576 9.69144 174 ft 5 kts 180°
2026-05-04 11:24 52.45458 9.69047 180 ft 17 kts 271°
2026-05-04 11:25 52.45457 9.68993 180 ft 0 kts 267°
2026-05-04 11:25 52.45457 9.68801 177 ft 42 kts 271°
2026-05-04 11:25 52.45484 9.68211 293 ft 56 kts 275°
2026-05-04 11:26 52.46003 9.67468 561 ft 82 kts 358°
2026-05-04 11:27 52.43955 9.69027 649 ft 85 kts 109°
2026-05-04 11:28 52.43856 9.69924 757 ft 78 kts 95°
2026-05-04 11:28 52.43835 9.70934 815 ft 101 kts 90°
2026-05-04 11:28 52.43903 9.72058 867 ft 95 kts 58°
2026-05-04 11:28 52.44441 9.72511 817 ft 87 kts
2026-05-04 11:29 52.45060 9.72595 628 ft 87 kts 352°
2026-05-04 11:29 52.45469 9.72081 440 ft 82 kts 270°
2026-05-04 11:29 52.45400 9.71167 230 ft 81 kts 271°
2026-05-04 11:29 52.45440 9.70360 177 ft 60 kts 260°
2026-05-04 11:31 52.44094 9.67939 1350 ft 104 kts 99°
2026-05-04 11:33 52.45349 9.72576 606 ft 97 kts 274°
2026-05-04 11:33 52.45388 9.71448 291 ft 99 kts 275°
2026-05-04 11:33 52.45423 9.70420 177 ft 81 kts 274°
2026-05-04 11:34 52.45470 9.69566 259 ft 74 kts 265°
2026-05-04 11:34 52.45379 9.68728 454 ft 79 kts 268°
2026-05-04 11:34 52.45337 9.67807 638 ft 81 kts 239°
2026-05-04 11:34 52.44795 9.67590 839 ft 87 kts 194°
2026-05-04 11:35 52.44194 9.67472 1020 ft 87 kts 188°
2026-05-04 11:35 52.43809 9.68328 980 ft 116 kts 97°
2026-05-04 11:35 52.43791 9.69656 995 ft 110 kts 89°
2026-05-04 11:35 52.43791 9.70775 949 ft 88 kts 89°
2026-05-04 11:36 52.43835 9.71746 763 ft 84 kts 84°
2026-05-04 11:36 52.43919 9.72623 629 ft 85 kts 69°
2026-05-04 11:36 52.44318 9.73308 619 ft 87 kts
2026-05-04 11:36 52.44869 9.73130 496 ft 77 kts 324°
2026-05-04 11:37 52.45177 9.72503 378 ft 67 kts 302°
2026-05-04 11:37 52.45344 9.71752 274 ft 70 kts 284°
2026-05-04 11:37 52.45400 9.70947 196 ft 75 kts 274°
2026-05-04 11:37 52.45424 9.70105 178 ft 71 kts 275°
2026-05-04 11:38 52.45473 9.69336 192 ft 75 kts 281°
2026-05-04 11:38 52.45440 9.68508 398 ft 76 kts 260°
2026-05-04 11:38 52.45242 9.67755 647 ft 69 kts 213°
2026-05-04 11:38 52.44778 9.67521 831 ft 76 kts 191°
2026-05-04 11:39 52.44314 9.67896 995 ft 88 kts 131°
2026-05-04 11:39 52.44029 9.68837 1116 ft 97 kts 102°
2026-05-04 11:40 52.44078 9.75607 1035 ft 101 kts 87°
2026-05-04 11:41 52.44173 9.76745 1105 ft 97 kts 66°
2026-05-04 11:41 52.44591 9.77456 1100 ft 82 kts 12°
2026-05-04 11:41 52.45064 9.77240 939 ft 74 kts 306°
2026-05-04 11:41 52.45256 9.76434 754 ft 78 kts 280°
2026-05-04 11:42 52.45278 9.75558 657 ft 76 kts 274°
2026-05-04 11:42 52.45284 9.74695 566 ft 75 kts 276°
2026-05-04 11:42 52.45314 9.73830 478 ft 77 kts 276°
2026-05-04 11:42 52.45344 9.72936 379 ft 80 kts 275°
2026-05-04 11:43 52.45369 9.72041 287 ft 74 kts 275°
2026-05-04 11:43 52.45389 9.71165 228 ft 87 kts 277°
2026-05-04 11:43 52.45424 9.70214 210 ft 73 kts 279°
2026-05-04 11:43 52.45447 9.69391 192 ft 75 kts 275°
2026-05-04 11:44 52.45435 9.68516 346 ft 81 kts 274°
2026-05-04 11:44 52.45227 9.67734 580 ft 80 kts 202°
2026-05-04 11:44 52.44678 9.67715 756 ft 88 kts 178°
2026-05-04 11:44 52.44121 9.68005 940 ft 90 kts 114°
2026-05-04 11:45 52.44123 9.69041 1086 ft 95 kts 86°
2026-05-04 11:45 52.44171 9.70171 1123 ft 98 kts 86°
2026-05-04 11:45 52.44172 9.71290 1230 ft 96 kts 90°
2026-05-04 11:45 52.44396 9.72181 1372 ft 84 kts 22°
2026-05-04 11:46 52.44973 9.72189 1292 ft 91 kts 349°
2026-05-04 11:46 52.45604 9.72164 1121 ft 83 kts 355°
2026-05-04 11:46 52.46160 9.71947 900 ft 81 kts 326°
2026-05-04 11:46 52.46613 9.71323 601 ft 88 kts 299°
2026-05-04 11:47 52.46679 9.70331 326 ft 90 kts 274°
2026-05-04 11:47 52.46706 9.69365 189 ft 74 kts 275°
2026-05-04 11:47 52.46721 9.68581 177 ft 65 kts 275°
2026-05-04 11:47 52.46730 9.67816 202 ft 75 kts 271°
2026-05-04 11:48 52.46724 9.67000 418 ft 69 kts 268°
2026-05-04 11:48 52.46722 9.66245 618 ft 67 kts 276°
2026-05-04 11:48 52.46778 9.65448 876 ft 73 kts 277°
2026-05-04 11:48 52.46863 9.64591 1068 ft 85 kts 319°
2026-05-04 11:49 52.47399 9.64539 1368 ft 78 kts
2026-05-04 11:49 52.47988 9.64652 1495 ft 89 kts
2026-05-04 11:49 52.48512 9.65293 1615 ft 109 kts 65°
2026-05-04 11:49 52.48547 9.66537 1715 ft 108 kts 95°
2026-05-04 11:50 52.48451 9.67783 1672 ft 111 kts 97°
2026-05-04 11:50 52.48353 9.68994 1688 ft 104 kts 97°
2026-05-04 11:50 52.48271 9.70160 1539 ft 100 kts 96°
2026-05-04 11:50 52.48222 9.71351 1401 ft 107 kts 88°
2026-05-04 11:51 52.48291 9.72635 1193 ft 109 kts 83°
2026-05-04 11:51 52.48335 9.73802 1045 ft 98 kts 88°
2026-05-04 11:51 52.48421 9.74813 954 ft 87 kts 59°
2026-05-04 11:51 52.48855 9.75220 883 ft 68 kts 347°
2026-05-04 11:52 52.49111 9.74634 767 ft 71 kts 272°
2026-05-04 11:52 52.49005 9.73748 730 ft 88 kts 243°
2026-05-04 11:52 52.48451 9.73345 683 ft 100 kts 186°
2026-05-04 11:52 52.47746 9.73290 596 ft 97 kts 185°
2026-05-04 11:53 52.47077 9.73239 504 ft 97 kts 181°
2026-05-04 11:53 52.46460 9.73084 406 ft 85 kts 203°
2026-05-04 11:53 52.45967 9.72661 339 ft 79 kts 214°
2026-05-04 11:53 52.45553 9.72082 279 ft 78 kts 231°